Round Oak, Georgia
Current Conditions -  °F | °C
As of 7:55 AM on Monday 20 Oct 2014 (Local Time) from KMLJ Reporting Station
Broken Clouds Broken Clouds  
Wind Chill: 46°   Ceiling: 100
Heat Index: 46°   Visibility: 7mi
Dew Point: 46°   Wind: 0mph
Humidity: 100%   Direction: NA
Pressure: 30.12"   Gusts: NA
Location:  33.177°N, 83.708°W
Report Text: KMLJ 201155Z AUTO 00000KT 7SM BKN001 08/08 A3012 RMK AO2
Loading
Personal Weather Stations






























Interactive Weather Map
Tropical Storm Tracking
New forecast layout! Learn more

10-Day Weather Forecast

Advertisements
Track Severe Weather on mobile